Time;durP1;ratioP1;P1;durP2;ratioP2;P2;SDS_P1;SDS_P2;PMS_P1;PMS_P2;Temp;Humidity;BMP_temperature;BMP_pressure;BME280_temperature;BME280_humidity;BME280_pressure;Samples;Min_cycle;Max_cycle;Signal;HPM_P1;HPM_P2
2021/04/27 00:00:18;;;;;;;12.15;8.15;;;8.20;94.70;;;;;;5021164;28;20081;-79
2021/04/27 00:02:45;;;;;;;13.43;8.23;;;8.20;94.60;;;;;;5021755;28;20085;-79
2021/04/27 00:05:14;;;;;;;12.00;8.10;;;8.20;95.50;;;;;;5020980;28;20060;-80
2021/04/27 00:07:41;;;;;;;12.75;8.27;;;8.20;96.10;;;;;;5020625;28;20464;-79
2021/04/27 00:10:10;;;;;;;11.88;8.05;;;8.20;97.30;;;;;;5021108;28;20099;-79
2021/04/27 00:12:37;;;;;;;10.85;8.10;;;8.10;97.50;;;;;;5021300;28;20129;-81
2021/04/27 00:15:06;;;;;;;11.98;8.23;;;8.10;97.90;;;;;;5021360;28;20477;-78
2021/04/27 00:17:32;;;;;;;12.98;8.00;;;8.10;98.00;;;;;;5021349;28;20057;-79
2021/04/27 00:20:00;;;;;;;12.02;8.15;;;8.10;98.50;;;;;;5018589;28;20053;-78
2021/04/27 00:22:26;;;;;;;13.30;8.02;;;8.10;98.90;;;;;;5019752;28;20084;-78
2021/04/27 00:24:52;;;;;;;13.40;7.80;;;8.00;98.90;;;;;;5020679;28;20076;-77
2021/04/27 00:27:19;;;;;;;12.50;8.70;;;8.00;98.80;;;;;;5020162;28;20576;-80
2021/04/27 00:29:45;;;;;;;16.73;8.38;;;8.00;98.80;;;;;;5019859;28;20173;-79
2021/04/27 00:32:11;;;;;;;11.98;8.40;;;8.00;98.60;;;;;;5019574;28;20092;-78
2021/04/27 00:34:38;;;;;;;13.68;8.80;;;7.90;97.90;;;;;;5020245;28;20054;-78
2021/04/27 00:37:05;;;;;;;17.00;9.77;;;7.80;98.70;;;;;;5018810;28;20056;-80
2021/04/27 00:39:31;;;;;;;13.77;9.00;;;7.80;99.00;;;;;;5020010;28;20049;-80
2021/04/27 00:41:58;;;;;;;11.55;8.60;;;7.80;99.30;;;;;;5020412;28;20073;-80
2021/04/27 00:44:24;;;;;;;12.50;8.55;;;7.80;99.30;;;;;;5026309;28;20077;-81
2021/04/27 00:46:52;;;;;;;14.07;8.18;;;7.80;99.40;;;;;;5027101;28;20046;-81
2021/04/27 00:49:18;;;;;;;14.18;8.25;;;7.60;99.60;;;;;;5023689;28;20154;-80
2021/04/27 00:51:45;;;;;;;15.65;8.07;;;7.50;99.40;;;;;;5019349;28;20117;-79
2021/04/27 00:54:12;;;;;;;10.23;7.55;;;7.50;99.90;;;;;;5019477;28;20110;-79
2021/04/27 00:56:39;;;;;;;11.68;7.72;;;7.50;99.90;;;;;;5018886;28;20133;-80
2021/04/27 00:59:06;;;;;;;10.02;7.15;;;7.50;99.90;;;;;;5019208;28;20124;-81
2021/04/27 01:01:32;;;;;;;13.90;7.63;;;7.50;99.90;;;;;;5021911;28;20046;-80
2021/04/27 01:03:59;;;;;;;14.35;8.52;;;7.60;99.90;;;;;;5018581;28;20429;-79
2021/04/27 01:06:25;;;;;;;11.05;7.47;;;7.60;99.90;;;;;;5019675;28;20117;-79
2021/04/27 01:08:57;;;;;;;9.70;6.95;;;7.60;99.90;;;;;;5021056;28;20132;-78
2021/04/27 01:11:32;;;;;;;12.05;6.90;;;7.60;99.70;;;;;;5021074;28;20077;-79
2021/04/27 01:14:06;;;;;;;9.27;6.53;;;7.50;98.70;;;;;;5020480;28;20077;-79
2021/04/27 01:16:36;;;;;;;10.77;6.38;;;7.50;98.60;;;;;;5019402;28;20061;-80
2021/04/27 01:19:07;;;;;;;10.30;5.90;;;7.50;98.20;;;;;;5020050;28;20132;-81
2021/04/27 01:21:34;;;;;;;9.52;6.43;;;7.40;97.80;;;;;;5019943;28;20465;-82
2021/04/27 01:24:11;;;;;;;9.00;6.43;;;7.40;97.30;;;;;;5019598;28;20132;-80
2021/04/27 01:26:42;;;;;;;11.00;6.45;;;7.50;97.20;;;;;;5019559;28;20077;-81
2021/04/27 01:29:11;;;;;;;11.07;6.03;;;7.50;96.90;;;;;;5020084;28;20073;-81
2021/04/27 01:31:39;;;;;;;12.55;6.05;;;7.50;96.90;;;;;;5019788;28;20105;-81
2021/04/27 01:34:06;;;;;;;10.10;6.03;;;7.50;97.00;;;;;;5021020;28;20119;-81
2021/04/27 01:36:34;;;;;;;8.18;6.20;;;7.50;96.70;;;;;;5020250;28;20060;-80
2021/04/27 01:39:00;;;;;;;9.65;7.00;;;7.50;96.60;;;;;;5021383;28;20129;-81
2021/04/27 01:41:27;;;;;;;11.27;6.30;;;7.50;96.30;;;;;;5021408;28;20046;-81
2021/04/27 01:43:55;;;;;;;9.07;5.85;;;7.50;96.30;;;;;;5022321;28;20397;-81
2021/04/27 01:46:22;;;;;;;7.07;5.53;;;7.40;96.00;;;;;;5019364;28;20085;-81
2021/04/27 01:48:49;;;;;;;8.23;5.72;;;7.40;96.00;;;;;;5024059;28;20073;-80
2021/04/27 01:51:19;;;;;;;9.52;5.60;;;7.40;96.50;;;;;;5034152;28;20050;-80
2021/04/27 01:53:46;;;;;;;11.40;5.82;;;7.40;96.40;;;;;;5021746;28;20085;-80
2021/04/27 01:56:12;;;;;;;9.20;5.63;;;7.40;96.70;;;;;;5019038;28;20049;-80
2021/04/27 01:58:39;;;;;;;8.48;5.90;;;7.40;97.00;;;;;;5019660;28;20088;-82
2021/04/27 02:01:06;;;;;;;11.70;7.32;;;7.40;97.30;;;;;;5019381;28;20049;-81
2021/04/27 02:03:40;;;;;;;8.70;6.75;;;7.30;97.40;;;;;;5018933;28;20085;-80
2021/04/27 02:06:06;;;;;;;10.57;7.15;;;7.30;97.50;;;;;;5019145;28;20141;-79
2021/04/27 02:08:33;;;;;;;10.65;6.63;;;7.30;97.60;;;;;;5019178;28;20168;-80
2021/04/27 02:11:00;;;;;;;9.77;6.18;;;7.30;97.70;;;;;;5018900;28;20132;-79
2021/04/27 02:13:27;;;;;;;8.50;6.38;;;7.30;97.70;;;;;;5018158;28;20077;-79
2021/04/27 02:15:54;;;;;;;9.85;6.35;;;7.20;97.90;;;;;;5018531;28;20489;-80
2021/04/27 02:18:30;;;;;;;10.48;6.57;;;7.20;98.10;;;;;;5017541;28;20126;-78
2021/04/27 02:21:00;;;;;;;10.38;5.65;;;7.10;97.90;;;;;;5020392;28;20129;-78
2021/04/27 02:23:28;;;;;;;8.40;5.82;;;7.10;97.80;;;;;;5019288;28;20045;-79
2021/04/27 02:25:55;;;;;;;9.23;5.53;;;7.00;97.80;;;;;;5019700;28;20149;-81
2021/04/27 02:28:21;;;;;;;9.88;5.10;;;6.90;97.50;;;;;;5018560;28;20132;-79
2021/04/27 02:30:50;;;;;;;7.30;5.88;;;6.90;97.80;;;;;;5018998;28;20401;-79
2021/04/27 02:33:17;;;;;;;6.88;5.32;;;6.80;97.40;;;;;;5017930;28;20498;-82
2021/04/27 02:35:44;;;;;;;8.48;5.30;;;6.90;97.30;;;;;;5017640;28;20141;-80
2021/04/27 02:38:12;;;;;;;10.93;5.95;;;6.90;97.30;;;;;;5017615;28;20136;-80
2021/04/27 02:40:39;;;;;;;11.90;6.68;;;6.90;97.10;;;;;;5017545;28;20088;-80
2021/04/27 02:43:06;;;;;;;12.27;6.35;;;6.90;97.30;;;;;;5017681;28;20069;-80
2021/04/27 02:45:32;;;;;;;9.20;6.00;;;6.90;97.30;;;;;;5018414;28;20585;-80
2021/04/27 02:48:07;;;;;;;11.10;6.07;;;6.90;97.40;;;;;;5018110;28;20081;-81
2021/04/27 02:50:35;;;;;;;9.05;5.53;;;6.90;97.20;;;;;;5018111;28;20050;-80
2021/04/27 02:53:02;;;;;;;8.13;5.38;;;6.90;97.20;;;;;;5017375;28;20049;-80
2021/04/27 02:55:28;;;;;;;8.38;5.90;;;6.80;97.50;;;;;;5018543;28;20046;-79
2021/04/27 02:57:55;;;;;;;12.32;6.30;;;6.80;97.70;;;;;;5015436;28;20142;-79
2021/04/27 03:00:21;;;;;;;9.23;5.90;;;6.80;97.80;;;;;;5018052;28;20526;-79
2021/04/27 03:02:48;;;;;;;8.55;5.40;;;6.80;98.10;;;;;;5017791;28;20076;-78
2021/04/27 03:05:14;;;;;;;13.65;6.07;;;6.80;98.30;;;;;;5016729;28;20530;-79
2021/04/27 03:07:40;;;;;;;16.20;6.75;;;6.80;98.50;;;;;;5018279;28;20084;-78
2021/04/27 03:10:09;;;;;;;11.18;7.05;;;6.70;98.50;;;;;;5018121;28;20077;-80
2021/04/27 03:12:35;;;;;;;10.57;6.65;;;6.70;98.50;;;;;;5016257;28;20145;-78
2021/04/27 03:15:02;;;;;;;12.40;6.38;;;6.60;98.20;;;;;;5019597;28;20111;-79
2021/04/27 03:17:29;;;;;;;9.30;6.00;;;6.60;98.00;;;;;;5024258;28;20089;-79
2021/04/27 03:19:55;;;;;;;8.15;5.47;;;6.60;97.90;;;;;;5029706;28;20061;-78
2021/04/27 03:22:21;;;;;;;10.30;5.63;;;6.50;97.60;;;;;;5028947;28;20049;-79
2021/04/27 03:24:48;;;;;;;8.82;5.07;;;6.50;97.80;;;;;;5022615;28;20114;-79
2021/04/27 03:27:15;;;;;;;9.95;5.60;;;6.50;97.90;;;;;;5017075;28;20109;-79
2021/04/27 03:29:42;;;;;;;10.27;6.10;;;6.40;97.80;;;;;;5016497;28;20073;-79
2021/04/27 03:32:08;;;;;;;17.75;5.32;;;6.40;98.00;;;;;;5018327;28;20136;-79
2021/04/27 03:34:35;;;;;;;14.30;5.47;;;6.40;97.80;;;;;;5018326;28;20140;-78
2021/04/27 03:37:01;;;;;;;14.85;5.75;;;6.30;98.00;;;;;;5060017;23;20462;-83
2021/04/27 03:39:28;;;;;;;15.57;5.63;;;6.30;98.00;;;;;;5051470;28;20147;-80
2021/04/27 03:41:54;;;;;;;16.23;5.88;;;6.30;98.20;;;;;;5058553;28;20501;-80
2021/04/27 03:44:22;;;;;;;10.77;5.95;;;6.30;98.10;;;;;;5058448;28;20049;-81
2021/04/27 03:46:48;;;;;;;22.35;5.60;;;6.30;98.40;;;;;;5058744;28;20365;-81
2021/04/27 03:49:14;;;;;;;20.25;6.35;;;6.30;98.30;;;;;;5057608;28;20056;-80
2021/04/27 03:51:41;;;;;;;13.38;5.50;;;6.20;98.40;;;;;;5057629;28;20105;-80
2021/04/27 03:54:08;;;;;;;8.45;5.60;;;6.20;98.40;;;;;;5058003;28;20080;-81
2021/04/27 03:56:34;;;;;;;12.30;5.80;;;6.20;98.50;;;;;;5061905;28;20191;-82
2021/04/27 03:59:01;;;;;;;13.82;5.30;;;6.20;98.60;;;;;;5061740;28;20135;-79
2021/04/27 04:01:28;;;;;;;10.02;5.68;;;6.20;99.30;;;;;;5061549;28;20051;-81
2021/04/27 04:03:54;;;;;;;7.00;5.35;;;6.20;99.00;;;;;;5062125;28;20053;-81
2021/04/27 04:06:21;;;;;;;8.95;5.63;;;6.10;99.30;;;;;;5065020;28;20060;-82
2021/04/27 04:08:47;;;;;;;11.18;5.38;;;6.10;99.60;;;;;;5064742;28;20137;-79
2021/04/27 04:11:14;;;;;;;9.35;5.43;;;6.10;99.80;;;;;;5066009;28;20081;-81
2021/04/27 04:13:40;;;;;;;12.10;5.90;;;6.00;99.90;;;;;;5074257;28;20056;-80
2021/04/27 04:16:07;;;;;;;11.77;5.40;;;6.00;99.90;;;;;;5077914;28;20064;-79
2021/04/27 04:18:34;;;;;;;8.82;5.60;;;6.00;99.90;;;;;;5079666;28;20048;-80
2021/04/27 04:21:01;;;;;;;9.38;5.35;;;5.90;99.90;;;;;;5079830;28;20059;-80
2021/04/27 04:23:28;;;;;;;8.93;5.82;;;5.90;99.90;;;;;;5079507;28;20025;-79
2021/04/27 04:25:55;;;;;;;10.85;5.88;;;5.90;99.90;;;;;;5079119;28;20062;-81
2021/04/27 04:28:21;;;;;;;10.85;5.70;;;5.90;99.90;;;;;;5079715;28;20057;-81
2021/04/27 04:30:47;;;;;;;10.93;5.00;;;5.90;99.90;;;;;;5079810;28;20064;-80
2021/04/27 04:33:14;;;;;;;7.18;4.95;;;5.80;99.90;;;;;;5076887;28;20048;-81
2021/04/27 04:35:41;;;;;;;10.30;5.70;;;5.90;99.90;;;;;;5078031;28;20067;-80
2021/04/27 04:38:08;;;;;;;9.23;5.40;;;5.90;99.90;;;;;;5078769;28;20055;-80
2021/04/27 04:40:34;;;;;;;14.90;6.18;;;6.00;99.90;;;;;;5078624;28;20101;-80
2021/04/27 04:43:01;;;;;;;7.80;4.95;;;6.00;99.90;;;;;;5079138;28;20025;-81
2021/04/27 04:45:27;;;;;;;10.30;5.35;;;6.00;99.90;;;;;;5078512;28;20037;-80
2021/04/27 04:47:54;;;;;;;8.25;5.60;;;6.10;99.90;;;;;;5078168;28;20045;-81
2021/04/27 04:50:21;;;;;;;9.35;5.53;;;6.10;99.90;;;;;;5077861;28;20059;-82
2021/04/27 04:52:48;;;;;;;8.98;5.50;;;6.10;99.90;;;;;;5076267;28;20060;-81
2021/04/27 04:55:17;;;;;;;11.88;5.22;;;6.10;99.90;;;;;;5074355;28;20052;-82
2021/04/27 04:57:43;;;;;;;8.10;5.15;;;6.10;99.90;;;;;;5072705;28;20163;-81
2021/04/27 05:00:14;;;;;;;8.63;5.60;;;6.20;99.90;;;;;;5077362;28;20049;-82
2021/04/27 05:02:40;;;;;;;9.98;5.65;;;6.10;99.90;;;;;;5076849;28;20120;-83
2021/04/27 05:05:08;;;;;;;10.27;5.60;;;6.30;99.90;;;;;;5075960;28;20060;-83
2021/04/27 05:07:41;;;;;;;10.73;5.90;;;6.30;99.90;;;;;;5071989;28;20049;-80
2021/04/27 05:10:10;;;;;;;13.05;5.70;;;6.30;99.90;;;;;;5070592;28;20540;-80
2021/04/27 05:12:36;;;;;;;9.43;5.88;;;6.40;99.90;;;;;;5069341;28;20068;-81
2021/04/27 05:15:04;;;;;;;13.52;5.70;;;6.50;99.90;;;;;;5068309;28;20113;-82
2021/04/27 05:17:30;;;;;;;17.30;5.70;;;6.60;99.90;;;;;;5069553;28;20081;-80
2021/04/27 05:19:59;;;;;;;16.35;5.90;;;6.70;99.60;;;;;;5065030;28;20052;-78
2021/04/27 05:22:25;;;;;;;12.82;5.90;;;6.80;99.10;;;;;;5058907;28;20120;-78
2021/04/27 05:24:52;;;;;;;14.98;5.20;;;7.20;98.30;;;;;;5061124;28;20053;-78
2021/04/27 05:27:19;;;;;;;13.65;5.43;;;7.70;97.30;;;;;;5059664;28;20076;-79
2021/04/27 05:29:46;;;;;;;10.18;5.38;;;8.20;96.00;;;;;;5060758;28;20133;-80
2021/04/27 05:32:12;;;;;;;9.82;4.90;;;8.80;95.20;;;;;;5065967;28;20106;-81
2021/04/27 05:34:38;;;;;;;10.63;5.10;;;9.40;93.90;;;;;;5066255;28;20087;-80
2021/04/27 05:37:05;;;;;;;11.52;5.18;;;9.80;92.70;;;;;;5068664;28;20056;-80
2021/04/27 05:39:31;;;;;;;10.55;4.95;;;10.10;91.20;;;;;;5066090;28;20056;-80
2021/04/27 05:41:58;;;;;;;11.30;5.20;;;10.20;90.60;;;;;;5069625;28;20064;-80
2021/04/27 05:44:25;;;;;;;13.23;5.30;;;10.40;90.20;;;;;;5073082;28;20068;-80
2021/04/27 05:46:52;;;;;;;13.80;5.38;;;10.70;89.40;;;;;;5067583;28;20084;-80
2021/04/27 05:49:19;;;;;;;10.73;4.80;;;10.90;88.60;;;;;;5067038;28;20083;-81
2021/04/27 05:51:45;;;;;;;16.42;5.20;;;11.20;86.60;;;;;;5062634;28;20127;-81
2021/04/27 05:54:12;;;;;;;11.73;4.88;;;11.40;86.80;;;;;;5059183;28;20091;-82
2021/04/27 05:56:39;;;;;;;12.43;5.25;;;11.70;85.50;;;;;;5058968;28;20083;-79
2021/04/27 05:59:05;;;;;;;10.88;4.90;;;11.70;84.10;;;;;;5056860;28;20080;-79
2021/04/27 06:01:33;;;;;;;7.72;4.90;;;11.80;83.20;;;;;;5056781;28;20128;-79
2021/04/27 06:04:00;;;;;;;9.40;5.03;;;11.60;82.80;;;;;;5057027;28;20107;-79
2021/04/27 06:06:26;;;;;;;10.15;5.15;;;11.80;82.70;;;;;;5055623;28;20087;-79
2021/04/27 06:08:52;;;;;;;13.10;4.72;;;11.80;80.60;;;;;;5057112;28;20052;-79
2021/04/27 06:11:19;;;;;;;9.10;5.30;;;11.80;80.10;;;;;;5056627;28;20198;-79
2021/04/27 06:13:45;;;;;;;10.90;5.05;;;12.00;79.90;;;;;;5058801;28;20103;-79
2021/04/27 06:16:12;;;;;;;6.82;4.90;;;12.10;80.30;;;;;;5056878;28;20108;-77
2021/04/27 06:18:39;;;;;;;9.15;4.93;;;12.00;78.60;;;;;;5059244;28;20072;-79
2021/04/27 06:21:07;;;;;;;8.93;4.90;;;12.00;78.50;;;;;;5042104;28;20082;-79
2021/04/27 06:23:38;;;;;;;7.07;4.88;;;12.30;80.50;;;;;;5037723;28;20045;-77
2021/04/27 06:26:05;;;;;;;8.25;4.80;;;12.50;78.80;;;;;;5036112;28;20519;-81
2021/04/27 06:28:31;;;;;;;7.28;4.80;;;12.80;77.60;;;;;;5039646;28;20081;-79
2021/04/27 06:30:57;;;;;;;12.27;5.50;;;12.70;75.90;;;;;;5039025;28;20080;-79
2021/04/27 06:33:29;;;;;;;7.95;5.30;;;12.90;77.00;;;;;;5038141;28;20129;-79
2021/04/27 06:35:57;;;;;;;7.00;4.53;;;13.10;74.80;;;;;;5034390;28;20140;-77
2021/04/27 06:38:23;;;;;;;9.63;4.80;;;13.30;75.10;;;;;;5035644;28;20068;-79
2021/04/27 06:40:52;;;;;;;6.50;4.43;;;13.50;75.30;;;;;;5035199;28;20220;-80
2021/04/27 06:43:19;;;;;;;6.97;4.60;;;13.40;73.40;;;;;;5035413;28;20069;-80
2021/04/27 06:45:45;;;;;;;6.53;4.28;;;13.30;72.70;;;;;;5036062;28;20128;-80
2021/04/27 06:48:12;;;;;;;8.32;5.55;;;13.40;73.30;;;;;;5026944;28;20084;-80
2021/04/27 06:50:40;;;;;;;6.88;4.65;;;13.40;71.60;;;;;;5029197;28;20149;-81
2021/04/27 06:53:08;;;;;;;10.23;4.70;;;13.30;72.20;;;;;;5028178;28;20077;-81
2021/04/27 06:55:35;;;;;;;10.30;5.20;;;13.50;72.00;;;;;;5029249;28;20103;-81
2021/04/27 06:58:17;;;;;;;9.10;4.55;;;13.60;70.60;;;;;;5022766;28;20129;-81
2021/04/27 07:00:44;;;;;;;10.25;4.68;;;13.40;69.30;;;;;;5021789;28;20476;-81
2021/04/27 07:03:11;;;;;;;8.73;4.40;;;13.50;70.50;;;;;;5020019;28;20052;-82
2021/04/27 07:05:37;;;;;;;7.20;4.25;;;13.30;70.60;;;;;;5035138;28;20056;-82
2021/04/27 07:08:05;;;;;;;10.45;4.60;;;13.50;70.30;;;;;;5025172;28;20076;-81
2021/04/27 07:10:32;;;;;;;7.70;4.63;;;13.70;70.10;;;;;;5030037;28;20054;-80
2021/04/27 07:12:59;;;;;;;10.65;4.90;;;13.80;68.80;;;;;;5032903;28;20222;-81
2021/04/27 07:15:29;;;;;;;8.32;4.70;;;13.70;67.50;;;;;;5021785;28;20058;-81
2021/04/27 07:17:57;;;;;;;8.05;4.45;;;13.60;67.90;;;;;;5032347;28;20514;-80
2021/04/27 07:20:24;;;;;;;8.50;4.40;;;13.70;67.70;;;;;;5030914;28;20061;-79
2021/04/27 07:22:50;;;;;;;6.47;4.38;;;13.70;68.00;;;;;;5032933;28;20144;-80
2021/04/27 07:25:16;;;;;;;9.05;4.72;;;13.70;67.40;;;;;;5031921;28;20136;-76
2021/04/27 07:27:45;;;;;;;6.65;4.30;;;13.80;65.80;;;;;;5031922;28;20081;-79
2021/04/27 07:30:30;;;;;;;6.55;4.78;;;13.80;66.60;;;;;;5034105;28;20079;-78
2021/04/27 07:32:56;;;;;;;12.68;4.60;;;13.70;66.40;;;;;;5036199;28;20053;-79
2021/04/27 07:35:24;;;;;;;8.32;4.57;;;13.80;66.30;;;;;;5038659;28;20137;-79
2021/04/27 07:38:00;;;;;;;7.15;4.30;;;13.80;64.90;;;;;;5037502;28;20049;-78
2021/04/27 07:40:47;;;;;;;7.18;4.50;;;13.80;65.60;;;;;;5038662;28;20137;-78
2021/04/27 07:43:14;;;;;;;7.47;4.50;;;13.90;65.30;;;;;;5037042;28;20064;-78
2021/04/27 07:45:41;;;;;;;7.85;4.32;;;14.10;64.80;;;;;;5038380;28;20136;-80
2021/04/27 07:48:09;;;;;;;5.25;4.55;;;13.80;64.30;;;;;;5039774;28;20049;-78
2021/04/27 07:50:37;;;;;;;10.27;4.50;;;13.70;64.10;;;;;;5038632;28;20054;-82
2021/04/27 07:53:04;;;;;;;9.02;4.32;;;13.70;64.70;;;;;;5047498;28;20029;-79
2021/04/27 07:55:31;;;;;;;7.85;4.32;;;13.90;65.50;;;;;;5054011;28;20064;-81
2021/04/27 07:57:58;;;;;;;6.05;4.40;;;14.00;64.50;;;;;;5053011;28;20049;-81
2021/04/27 08:00:26;;;;;;;6.40;3.95;;;14.10;65.30;;;;;;5042257;28;20103;-81
2021/04/27 08:02:53;;;;;;;6.07;4.30;;;14.40;65.00;;;;;;5044876;28;20049;-81
2021/04/27 08:05:20;;;;;;;7.00;4.32;;;14.70;65.50;;;;;;5042591;28;20084;-81
2021/04/27 08:07:48;;;;;;;9.48;4.90;;;15.20;65.20;;;;;;5043485;28;20089;-81
2021/04/27 08:10:15;;;;;;;7.85;5.07;;;15.00;63.90;;;;;;5040901;28;20045;-81
2021/04/27 08:12:44;;;;;;;8.30;5.57;;;14.50;62.20;;;;;;5043413;28;20103;-82
2021/04/27 08:15:13;;;;;;;5.97;4.40;;;14.40;63.30;;;;;;5043146;28;20049;-81
2021/04/27 08:17:41;;;;;;;7.57;4.55;;;14.20;62.50;;;;;;5038771;28;20061;-80
2021/04/27 08:20:10;;;;;;;9.13;4.70;;;14.10;63.60;;;;;;5036877;28;20068;-80
2021/04/27 08:22:37;;;;;;;10.30;5.10;;;14.40;63.20;;;;;;5040247;28;20060;-82
2021/04/27 08:25:05;;;;;;;7.40;4.80;;;14.50;62.80;;;;;;5041286;28;20073;-80
2021/04/27 08:27:32;;;;;;;8.25;4.63;;;14.80;64.20;;;;;;5038680;28;20105;-77
2021/04/27 08:29:59;;;;;;;9.93;5.05;;;14.90;63.10;;;;;;5040829;28;20565;-81
2021/04/27 08:32:26;;;;;;;9.60;4.85;;;14.90;62.90;;;;;;5040795;28;20075;-82
2021/04/27 08:34:56;;;;;;;8.18;4.70;;;15.00;61.50;;;;;;5043525;28;20053;-82
2021/04/27 08:37:25;;;;;;;8.45;5.13;;;15.20;63.30;;;;;;5044557;28;20092;-82
2021/04/27 08:39:51;;;;;;;11.07;4.88;;;15.20;62.60;;;;;;5041028;28;20088;-81
2021/04/27 08:42:23;;;;;;;7.80;5.25;;;15.00;59.70;;;;;;5041849;28;20060;-81
2021/04/27 08:50:25;;;;;;;7.68;5.32;;;14.60;62.40;;;;;;5040896;28;20065;-82
2021/04/27 08:52:52;;;;;;;9.70;5.00;;;14.80;60.50;;;;;;5043593;28;20041;-79
2021/04/27 08:55:18;;;;;;;7.32;4.88;;;14.70;59.60;;;;;;5050955;28;20072;-80
2021/04/27 08:57:48;;;;;;;7.22;5.00;;;14.70;60.00;;;;;;5040113;28;20053;-78
2021/04/27 09:02:53;;;;;;;6.97;4.70;;;15.40;61.60;;;;;;5066726;23;20425;-81
2021/04/27 09:05:23;;;;;;;7.45;5.15;;;15.70;61.60;;;;;;5062760;28;20099;-81
2021/04/27 09:07:50;;;;;;;7.28;5.32;;;15.50;59.80;;;;;;5062132;28;20052;-81
2021/04/27 09:10:23;;;;;;;8.38;5.15;;;15.40;58.80;;;;;;5063040;28;20049;-80
2021/04/27 09:12:52;;;;;;;8.43;4.80;;;14.90;59.60;;;;;;5040067;28;20091;-81
2021/04/27 09:15:30;;;;;;;10.63;5.22;;;14.90;59.10;;;;;;5041586;28;20053;-81
2021/04/27 09:17:57;;;;;;;9.85;5.78;;;14.80;59.30;;;;;;5042953;28;20049;-82
2021/04/27 09:20:24;;;;;;;7.80;5.20;;;14.60;59.10;;;;;;5043258;28;20498;-81
2021/04/27 09:22:51;;;;;;;8.55;5.28;;;14.40;59.80;;;;;;5044528;28;20049;-80
2021/04/27 09:25:23;;;;;;;8.00;4.90;;;14.50;60.60;;;;;;5042796;28;20091;-81
2021/04/27 09:30:40;;;;;;;12.32;4.78;;;14.50;59.00;;;;;;5042207;28;20112;-80
2021/04/27 09:33:17;;;;;;;8.05;4.85;;;14.60;59.80;;;;;;5047445;28;20053;-83
2021/04/27 09:35:46;;;;;;;7.82;5.30;;;14.80;59.30;;;;;;5044880;28;20061;-82
2021/04/27 09:38:18;;;;;;;8.52;5.70;;;14.70;58.20;;;;;;5040836;28;20076;-81
2021/04/27 09:40:57;;;;;;;5.78;5.00;;;14.70;59.80;;;;;;5041112;28;20045;-82
2021/04/27 09:43:25;;;;;;;10.57;5.13;;;14.70;59.70;;;;;;5043066;28;20135;-82
2021/04/27 09:45:54;;;;;;;7.57;4.93;;;14.70;58.90;;;;;;5041654;28;20065;-76
2021/04/27 09:48:42;;;;;;;6.95;4.78;;;14.60;58.00;;;;;;5039945;28;20089;-82
2021/04/27 09:51:25;;;;;;;9.15;4.78;;;14.30;58.80;;;;;;5040968;28;20457;-82
2021/04/27 09:53:56;;;;;;;8.60;5.05;;;14.30;58.70;;;;;;5046124;28;20088;-82
2021/04/27 09:56:33;;;;;;;6.53;5.22;;;14.50;60.20;;;;;;5044583;28;20053;-82
2021/04/27 09:59:04;;;;;;;7.63;5.60;;;14.50;59.20;;;;;;5044394;28;20045;-81
2021/04/27 10:01:31;;;;;;;5.50;5.00;;;14.60;59.00;;;;;;5041185;28;20140;-81
2021/04/27 10:03:57;;;;;;;7.45;4.80;;;14.90;58.80;;;;;;5042110;28;20049;-82
2021/04/27 10:06:25;;;;;;;13.05;5.50;;;14.90;58.10;;;;;;5041717;28;20109;-82
2021/04/27 10:08:52;;;;;;;16.77;5.50;;;15.10;60.20;;;;;;5041736;28;20053;-82
2021/04/27 10:11:20;;;;;;;6.95;4.75;;;15.40;59.50;;;;;;5042573;28;20077;-81
2021/04/27 10:13:49;;;;;;;7.63;4.97;;;15.60;58.60;;;;;;5042603;28;20081;-82
2021/04/27 10:16:18;;;;;;;7.57;4.93;;;15.50;55.90;;;;;;5042563;28;20105;-80
2021/04/27 10:18:45;;;;;;;8.98;5.35;;;15.30;56.30;;;;;;5043603;28;20053;-81
2021/04/27 10:21:14;;;;;;;9.15;5.03;;;15.20;56.70;;;;;;5042462;28;20057;-81
2021/04/27 10:23:46;;;;;;;11.00;5.32;;;15.00;57.50;;;;;;5044316;28;20099;-82
2021/04/27 10:26:13;;;;;;;6.13;4.88;;;15.00;57.70;;;;;;5043558;28;20049;-82
2021/04/27 10:29:01;;;;;;;6.30;5.28;;;15.10;56.10;;;;;;5041464;28;20057;-80
2021/04/27 10:31:30;;;;;;;6.57;5.22;;;15.00;57.20;;;;;;5041360;28;20069;-81
2021/04/27 10:34:06;;;;;;;8.63;5.25;;;15.10;57.20;;;;;;5040276;28;20056;-79
2021/04/27 10:36:35;;;;;;;7.93;6.00;;;15.40;58.90;;;;;;5040891;28;20092;-81
2021/04/27 10:39:05;;;;;;;6.03;5.20;;;15.50;56.80;;;;;;5039882;28;20089;-79
2021/04/27 10:41:52;;;;;;;8.90;5.43;;;15.80;59.50;;;;;;5040911;28;20064;-80
2021/04/27 10:44:19;;;;;;;8.45;5.13;;;16.00;58.00;;;;;;5038095;28;20092;-80
2021/04/27 10:46:48;;;;;;;6.60;5.22;;;16.00;57.90;;;;;;5040116;28;20162;-80
2021/04/27 10:49:25;;;;;;;6.57;5.32;;;15.80;55.80;;;;;;5038907;28;20084;-79
2021/04/27 10:51:52;;;;;;;8.13;5.40;;;15.70;56.70;;;;;;5039190;28;20477;-79
2021/04/27 10:54:22;;;;;;;11.07;6.05;;;15.70;56.60;;;;;;5039808;28;20413;-79
2021/04/27 10:56:51;;;;;;;8.05;5.78;;;15.80;56.20;;;;;;5038684;28;20050;-82
2021/04/27 10:59:19;;;;;;;7.95;5.53;;;16.00;56.30;;;;;;5038419;28;20409;-82
2021/04/27 11:02:12;;;;;;;7.65;5.45;;;16.10;55.90;;;;;;5039823;28;20076;-82
2021/04/27 11:04:42;;;;;;;8.25;5.50;;;16.20;55.40;;;;;;5039140;28;20084;-82
2021/04/27 11:07:32;;;;;;;8.85;5.90;;;16.20;55.70;;;;;;5039745;28;20054;-79
2021/04/27 11:10:23;;;;;;;8.55;5.80;;;16.30;57.30;;;;;;5039454;28;20053;-81
2021/04/27 11:12:58;;;;;;;8.07;5.22;;;16.20;55.40;;;;;;5039275;28;20045;-80
2021/04/27 11:15:27;;;;;;;8.80;5.40;;;16.20;54.60;;;;;;5041198;28;20049;-82
2021/04/27 11:17:57;;;;;;;8.60;5.70;;;16.10;55.60;;;;;;5041105;28;20053;-80
2021/04/27 11:20:46;;;;;;;7.50;5.47;;;16.20;55.60;;;;;;5038318;28;20077;-81
2021/04/27 11:23:35;;;;;;;8.65;5.80;;;16.50;56.30;;;;;;5040590;28;20073;-81
2021/04/27 11:26:03;;;;;;;8.82;5.72;;;16.90;55.90;;;;;;5039890;28;20336;-82
2021/04/27 11:28:54;;;;;;;7.38;5.30;;;16.80;53.90;;;;;;5040199;28;20081;-84
2021/04/27 11:31:21;;;;;;;7.97;5.93;;;16.80;55.50;;;;;;5041989;28;20068;-83
2021/04/27 11:33:56;;;;;;;8.40;5.45;;;16.70;54.80;;;;;;5039969;28;20049;-82
2021/04/27 11:36:35;;;;;;;10.35;5.65;;;16.50;54.70;;;;;;5041224;28;20057;-81
2021/04/27 11:39:10;;;;;;;9.82;5.95;;;16.60;55.40;;;;;;5041287;28;20049;-82
2021/04/27 11:41:44;;;;;;;10.85;5.63;;;16.50;54.70;;;;;;5041279;28;20129;-83
2021/04/27 11:44:18;;;;;;;15.27;6.22;;;16.50;57.00;;;;;;5042992;28;20049;-83
2021/04/27 11:47:02;;;;;;;9.60;5.63;;;16.80;55.50;;;;;;5042593;28;20136;-83
2021/04/27 11:49:53;;;;;;;6.68;5.65;;;17.10;55.70;;;;;;5039799;28;20092;-81
2021/04/27 11:52:44;;;;;;;7.28;5.82;;;17.20;53.40;;;;;;5039874;28;20512;-83
2021/04/27 11:55:21;;;;;;;11.48;6.22;;;17.00;53.40;;;;;;5040092;28;20075;-83
2021/04/27 11:57:56;;;;;;;8.50;6.03;;;17.00;55.20;;;;;;5042298;28;20104;-82
2021/04/27 12:00:29;;;;;;;11.10;5.60;;;17.30;54.80;;;;;;5039508;28;20100;-79
2021/04/27 12:02:56;;;;;;;8.80;6.05;;;17.30;53.60;;;;;;5039910;28;20053;-81
2021/04/27 12:05:22;;;;;;;8.43;5.88;;;17.30;53.40;;;;;;5039735;28;20057;-81
2021/04/27 12:07:49;;;;;;;9.73;6.50;;;17.20;53.10;;;;;;5028732;28;20092;-80
2021/04/27 12:10:16;;;;;;;8.98;5.85;;;17.00;53.50;;;;;;5017890;28;20110;-82
2021/04/27 12:12:46;;;;;;;8.20;5.78;;;16.90;52.70;;;;;;5019416;28;20054;-80
2021/04/27 12:15:14;;;;;;;9.43;5.68;;;16.70;53.40;;;;;;5020893;28;20168;-81
2021/04/27 12:17:43;;;;;;;7.47;5.65;;;16.80;52.80;;;;;;5023129;28;20134;-82
2021/04/27 12:20:16;;;;;;;7.82;6.00;;;16.70;53.00;;;;;;5022125;28;20081;-81
2021/04/27 12:22:51;;;;;;;6.63;5.55;;;16.90;54.50;;;;;;5020874;28;20054;-81
2021/04/27 12:25:22;;;;;;;8.85;5.75;;;17.20;52.50;;;;;;5022116;28;20109;-80
2021/04/27 12:27:53;;;;;;;8.77;5.95;;;17.30;52.80;;;;;;5029065;28;20041;-82
2021/04/27 12:30:24;;;;;;;6.75;5.70;;;17.40;52.00;;;;;;5037630;28;20060;-86
2021/04/27 12:33:09;;;;;;;7.22;5.85;;;17.50;52.40;;;;;;5038351;28;20038;-86
2021/04/27 12:35:38;;;;;;;6.47;5.55;;;17.50;50.90;;;;;;5039464;28;20038;-85
2021/04/27 12:38:13;;;;;;;7.65;5.47;;;17.30;50.50;;;;;;5038168;28;20092;-82
2021/04/27 12:40:41;;;;;;;6.93;5.50;;;17.20;51.10;;;;;;5028221;28;20064;-81
2021/04/27 12:43:10;;;;;;;7.38;5.30;;;17.00;49.70;;;;;;5024082;28;20050;-80
2021/04/27 12:45:48;;;;;;;7.82;5.50;;;16.90;49.20;;;;;;5023646;28;20069;-79
2021/04/27 12:48:16;;;;;;;7.47;5.25;;;16.70;50.40;;;;;;5022681;28;20502;-81
2021/04/27 12:50:49;;;;;;;8.43;5.55;;;16.60;49.40;;;;;;5021370;28;20073;-80
2021/04/27 12:53:18;;;;;;;6.82;4.82;;;16.60;50.10;;;;;;5022640;28;20479;-80
2021/04/27 12:55:52;;;;;;;11.23;5.72;;;16.70;50.30;;;;;;5022709;28;20061;-82
2021/04/27 12:58:23;;;;;;;9.00;5.60;;;16.70;50.00;;;;;;5022562;28;20077;-84
2021/04/27 13:00:54;;;;;;;7.25;5.32;;;16.90;51.30;;;;;;5035889;28;20064;-82
2021/04/27 13:03:22;;;;;;;9.55;5.47;;;16.80;50.70;;;;;;5040084;28;20076;-84
2021/04/27 13:05:49;;;;;;;8.93;5.47;;;17.10;52.00;;;;;;5040476;28;20132;-85
2021/04/27 13:08:15;;;;;;;7.80;5.60;;;17.30;52.30;;;;;;5041963;28;20081;-81